createdAt,value
2018-01-17T00:00:13.895Z,0
2018-01-17T00:01:13.924Z,0
2018-01-17T00:02:13.409Z,0
2018-01-17T00:03:13.503Z,0
2018-01-17T00:04:14.077Z,0
2018-01-17T00:05:13.517Z,0
2018-01-17T00:06:14.044Z,0
2018-01-17T00:07:13.545Z,0
2018-01-17T00:08:13.815Z,0
2018-01-17T00:09:13.826Z,0
2018-01-17T00:10:13.841Z,0
2018-01-17T00:11:13.600Z,0
2018-01-17T00:12:14.392Z,0
2018-01-17T00:13:13.626Z,0
2018-01-17T00:14:13.828Z,0
2018-01-17T00:15:13.594Z,0
2018-01-17T00:16:14.137Z,0
2018-01-17T00:17:14.132Z,0
2018-01-17T00:18:13.662Z,0
2018-01-17T00:19:13.960Z,0
2018-01-17T00:20:13.902Z,0
2018-01-17T00:21:14.426Z,0
2018-01-17T00:22:13.948Z,0
2018-01-17T00:23:14.266Z,0
2018-01-17T00:24:13.727Z,0
2018-01-17T00:25:14.231Z,0
2018-01-17T00:26:14.249Z,0
2018-01-17T00:27:14.016Z,0
2018-01-17T00:28:13.770Z,0
2018-01-17T00:29:14.037Z,0
2018-01-17T00:30:13.805Z,0
2018-01-17T00:31:13.816Z,0
2018-01-17T00:32:14.337Z,0
2018-01-17T00:33:13.847Z,0
2018-01-17T00:34:14.422Z,0
2018-01-17T00:35:13.616Z,0
2018-01-17T00:36:13.885Z,0
2018-01-17T00:37:14.398Z,0
2018-01-17T00:38:13.910Z,0
2018-01-17T00:39:14.454Z,0
2018-01-17T00:40:14.447Z,0
2018-01-17T00:41:14.207Z,0
2018-01-17T00:42:14.473Z,0
2018-01-17T00:43:13.982Z,0
2018-01-17T00:44:14.298Z,0
2018-01-17T00:45:14.265Z,0
2018-01-17T00:46:14.027Z,0
2018-01-17T00:47:14.040Z,0
2018-01-17T00:48:13.797Z,0
2018-01-17T00:49:14.417Z,0
2018-01-17T00:50:14.085Z,0
2018-01-17T00:51:14.347Z,0
2018-01-17T00:52:14.354Z,0
2018-01-17T00:53:14.699Z,0
2018-01-17T00:54:14.639Z,0
2018-01-17T00:55:14.654Z,0
2018-01-17T00:56:14.423Z,0
2018-01-17T00:57:14.936Z,0
2018-01-17T00:58:14.695Z,0
2018-01-17T00:59:14.706Z,0
2018-01-17T01:00:13.970Z,0
2018-01-17T01:01:14.982Z,0
2018-01-17T01:02:14.498Z,0
2018-01-17T01:03:14.767Z,0
2018-01-17T01:04:14.528Z,0
2018-01-17T01:05:15.039Z,0
2018-01-17T01:06:14.453Z,0
2018-01-17T01:07:14.823Z,0
2018-01-17T01:08:14.074Z,0
2018-01-17T01:09:14.596Z,0
2018-01-17T01:10:15.111Z,0
2018-01-17T01:11:15.120Z,0
2018-01-17T01:12:15.181Z,0
2018-01-17T01:13:14.651Z,0
2018-01-17T01:14:14.409Z,0
2018-01-17T01:15:14.930Z,0
2018-01-17T01:16:15.195Z,0
2018-01-17T01:17:14.958Z,0
2018-01-17T01:18:14.720Z,0
2018-01-17T01:19:14.728Z,0
2018-01-17T01:20:14.755Z,0
2018-01-17T01:21:14.811Z,0
2018-01-17T01:22:14.775Z,0
2018-01-17T01:23:14.785Z,0
2018-01-17T01:24:14.294Z,0
2018-01-17T01:25:15.068Z,0
2018-01-17T01:26:14.828Z,0
2018-01-17T01:27:14.842Z,0
2018-01-17T01:28:14.856Z,0
2018-01-17T01:29:15.127Z,0
2018-01-17T01:30:14.954Z,0
2018-01-17T01:31:14.968Z,0
2018-01-17T01:32:15.232Z,0
2018-01-17T01:33:15.506Z,0
2018-01-17T01:34:15.265Z,0
2018-01-17T01:35:15.012Z,0
2018-01-17T01:36:15.082Z,0
2018-01-17T01:37:14.783Z,0
2018-01-17T01:38:15.427Z,0
2018-01-17T01:39:15.247Z,0
2018-01-17T01:40:15.012Z,0
2018-01-17T01:41:14.771Z,0
2018-01-17T01:42:14.862Z,0
2018-01-17T01:43:14.873Z,0
2018-01-17T01:44:15.401Z,0
2018-01-17T01:45:15.159Z,0
2018-01-17T01:46:14.918Z,0
2018-01-17T01:47:15.741Z,0
2018-01-17T01:48:15.459Z,0
2018-01-17T01:49:15.476Z,0
2018-01-17T01:50:15.223Z,0
2018-01-17T01:51:14.978Z,0
2018-01-17T01:52:15.563Z,0
2018-01-17T01:53:15.520Z,0
2018-01-17T01:54:15.482Z,0
2018-01-17T01:55:15.572Z,0
2018-01-17T01:56:15.047Z,0
2018-01-17T01:57:15.314Z,0
2018-01-17T01:58:15.070Z,0
2018-01-17T01:59:15.343Z,0
2018-01-17T02:00:15.630Z,0
2018-01-17T02:01:15.379Z,0
2018-01-17T02:02:15.647Z,0
2018-01-17T02:03:15.677Z,0
2018-01-17T02:04:15.676Z,0
2018-01-17T02:05:15.945Z,0
2018-01-17T02:06:15.184Z,0
2018-01-17T02:07:16.013Z,0
2018-01-17T02:08:15.465Z,0
2018-01-17T02:09:15.991Z,0
2018-01-17T02:10:15.805Z,0
2018-01-17T02:11:16.075Z,0
2018-01-17T02:12:15.520Z,0
2018-01-17T02:13:15.536Z,0
2018-01-17T02:14:15.547Z,0
2018-01-17T02:15:15.560Z,0
2018-01-17T02:16:15.831Z,0
2018-01-17T02:17:15.849Z,0
2018-01-17T02:18:15.082Z,0
2018-01-17T02:19:15.801Z,0
2018-01-17T02:20:15.832Z,0
2018-01-17T02:21:16.072Z,0
2018-01-17T02:22:15.634Z,0
2018-01-17T02:23:15.603Z,0
2018-01-17T02:24:15.615Z,0
2018-01-17T02:25:15.873Z,0
2018-01-17T02:26:15.888Z,0
2018-01-17T02:27:15.906Z,0
2018-01-17T02:28:15.912Z,0
2018-01-17T02:29:15.927Z,0
2018-01-17T02:30:15.693Z,0
2018-01-17T02:31:15.754Z,0
2018-01-17T02:32:15.976Z,0
2018-01-17T02:33:16.031Z,0
2018-01-17T02:34:15.741Z,0
2018-01-17T02:35:15.527Z,0
2018-01-17T02:36:15.766Z,0
2018-01-17T02:37:15.586Z,0
2018-01-17T02:38:15.806Z,0
2018-01-17T02:39:16.073Z,0
2018-01-17T02:40:15.826Z,0
2018-01-17T02:41:15.346Z,0
2018-01-17T02:42:15.599Z,0
2018-01-17T02:43:16.133Z,0
2018-01-17T02:44:15.899Z,0
2018-01-17T02:45:15.887Z,0
2018-01-17T02:46:15.907Z,0
2018-01-17T02:47:15.915Z,0
2018-01-17T02:48:16.444Z,0
2018-01-17T02:49:16.199Z,0
2018-01-17T02:50:15.957Z,0
2018-01-17T02:51:16.549Z,0
2018-01-17T02:52:16.035Z,0
2018-01-17T02:53:16.529Z,0
2018-01-17T02:54:16.272Z,0
2018-01-17T02:55:16.539Z,0
2018-01-17T02:56:16.041Z,0
2018-01-17T02:57:15.803Z,0
2018-01-17T02:58:15.819Z,0
2018-01-17T02:59:16.330Z,0
2018-01-17T03:00:15.589Z,0
2018-01-17T03:01:16.360Z,0
2018-01-17T03:02:16.120Z,0
2018-01-17T03:03:16.389Z,0
2018-01-17T03:04:16.394Z,0
2018-01-17T03:05:16.414Z,0
2018-01-17T03:06:16.173Z,0
2018-01-17T03:07:16.842Z,0
2018-01-17T03:08:15.949Z,0
2018-01-17T03:09:15.960Z,0
2018-01-17T03:10:15.979Z,0
2018-01-17T03:11:16.244Z,0
2018-01-17T03:12:16.002Z,0
2018-01-17T03:13:16.270Z,0
2018-01-17T03:14:16.030Z,0
2018-01-17T03:15:16.561Z,0
2018-01-17T03:16:16.311Z,0
2018-01-17T03:17:16.325Z,0
2018-01-17T03:18:16.336Z,0
2018-01-17T03:19:16.853Z,0
2018-01-17T03:20:16.117Z,0
2018-01-17T03:21:16.127Z,0
2018-01-17T03:22:16.698Z,0
2018-01-17T03:23:16.158Z,0
2018-01-17T03:24:16.419Z,0
2018-01-17T03:25:16.692Z,0
2018-01-17T03:26:16.445Z,0
2018-01-17T03:27:16.823Z,0
2018-01-17T03:28:16.723Z,0
2018-01-17T03:29:16.756Z,0
2018-01-17T03:30:17.008Z,0
2018-01-17T03:31:16.776Z,0
2018-01-17T03:32:16.272Z,0
2018-01-17T03:33:16.796Z,0
2018-01-17T03:34:17.052Z,0
2018-01-17T03:35:16.571Z,0
2018-01-17T03:36:16.581Z,0
2018-01-17T03:37:17.156Z,0
2018-01-17T03:38:16.607Z,0
2018-01-17T03:39:16.881Z,0
2018-01-17T03:40:16.893Z,0
2018-01-17T03:41:16.663Z,0
2018-01-17T03:42:16.661Z,0
2018-01-17T03:43:16.695Z,0
2018-01-17T03:44:16.691Z,0
2018-01-17T03:45:16.959Z,0
2018-01-17T03:46:17.014Z,0
2018-01-17T03:47:16.986Z,0
2018-01-17T03:48:16.747Z,0
2018-01-17T03:49:16.538Z,0
2018-01-17T03:50:17.025Z,0
2018-01-17T03:51:17.042Z,0
2018-01-17T03:52:16.845Z,0
2018-01-17T03:53:17.315Z,0
2018-01-17T03:54:17.079Z,0
2018-01-17T03:55:16.589Z,0
2018-01-17T03:56:16.607Z,0
2018-01-17T03:57:16.869Z,0
2018-01-17T03:58:17.139Z,0
2018-01-17T03:59:17.145Z,0
2018-01-17T04:00:16.931Z,0
2018-01-17T04:01:16.923Z,0
2018-01-17T04:02:17.185Z,0
2018-01-17T04:03:17.206Z,0
2018-01-17T04:04:17.463Z,0
2018-01-17T04:05:16.975Z,0
2018-01-17T04:06:17.246Z,0
2018-01-17T04:07:17.154Z,0
2018-01-17T04:08:17.020Z,0
2018-01-17T04:09:17.283Z,0
2018-01-17T04:10:17.552Z,0
2018-01-17T04:11:17.065Z,0
2018-01-17T04:12:17.079Z,0
2018-01-17T04:13:17.362Z,0
2018-01-17T04:14:17.622Z,0
2018-01-17T04:15:16.866Z,0
2018-01-17T04:16:16.881Z,0
2018-01-17T04:17:16.884Z,0
2018-01-17T04:18:17.411Z,0
2018-01-17T04:19:17.181Z,0
2018-01-17T04:20:17.687Z,0
2018-01-17T04:21:16.946Z,0
2018-01-17T04:22:17.867Z,0
2018-01-17T04:23:17.763Z,0
2018-01-17T04:24:17.242Z,0
2018-01-17T04:25:17.257Z,0
2018-01-17T04:26:17.026Z,0
2018-01-17T04:27:17.051Z,0
2018-01-17T04:28:17.300Z,0
2018-01-17T04:29:17.311Z,0
2018-01-17T04:30:17.321Z,0
2018-01-17T04:31:17.104Z,0
2018-01-17T04:32:17.097Z,0
2018-01-17T04:33:17.362Z,0
2018-01-17T04:34:17.633Z,0
2018-01-17T04:35:17.397Z,0
2018-01-17T04:36:17.663Z,0
2018-01-17T04:37:17.725Z,0
2018-01-17T04:38:17.935Z,0
2018-01-17T04:39:17.700Z,0
2018-01-17T04:40:17.712Z,0
2018-01-17T04:41:17.226Z,0
2018-01-17T04:42:17.746Z,0
2018-01-17T04:43:17.249Z,0
2018-01-17T04:44:18.017Z,0
2018-01-17T04:45:18.037Z,0
2018-01-17T04:46:17.795Z,0
2018-01-17T04:47:17.808Z,0
2018-01-17T04:48:17.825Z,0
2018-01-17T04:49:17.846Z,0
2018-01-17T04:50:17.603Z,0
2018-01-17T04:51:17.359Z,0
2018-01-17T04:52:17.677Z,0
2018-01-17T04:53:17.655Z,0
2018-01-17T04:54:18.162Z,0
2018-01-17T04:55:17.673Z,0
2018-01-17T04:56:17.932Z,0
2018-01-17T04:57:17.947Z,0
2018-01-17T04:58:17.966Z,0
2018-01-17T04:59:17.736Z,0
2018-01-17T05:00:17.740Z,0
2018-01-17T05:01:18.256Z,0
2018-01-17T05:02:18.017Z,0
2018-01-17T05:03:18.036Z,0
2018-01-17T05:04:18.053Z,0
2018-01-17T05:05:18.064Z,0
2018-01-17T05:06:18.082Z,0
2018-01-17T05:07:18.135Z,0
2018-01-17T05:08:18.103Z,0
2018-01-17T05:09:18.114Z,0
2018-01-17T05:10:18.144Z,0
2018-01-17T05:11:18.139Z,0
2018-01-17T05:12:17.914Z,0
2018-01-17T05:13:17.916Z,0
2018-01-17T05:14:17.675Z,0
2018-01-17T05:15:18.203Z,0
2018-01-17T05:16:17.959Z,0
2018-01-17T05:17:17.821Z,0
2018-01-17T05:18:17.989Z,0
2018-01-17T05:19:18.249Z,0
2018-01-17T05:20:18.264Z,0
2018-01-17T05:21:18.280Z,0
2018-01-17T05:22:18.104Z,0
2018-01-17T05:23:18.054Z,0
2018-01-17T05:24:18.338Z,0
2018-01-17T05:25:18.088Z,0
2018-01-17T05:26:17.845Z,0
2018-01-17T05:27:18.610Z,0
2018-01-17T05:28:18.376Z,0
2018-01-17T05:29:17.889Z,0
2018-01-17T05:30:18.153Z,0
2018-01-17T05:31:18.671Z,0
2018-01-17T05:32:18.454Z,0
2018-01-17T05:33:18.826Z,0
2018-01-17T05:34:18.205Z,0
2018-01-17T05:35:18.476Z,0
2018-01-17T05:36:18.234Z,0
2018-01-17T05:37:18.511Z,0
2018-01-17T05:38:18.570Z,0
2018-01-17T05:39:18.274Z,0
2018-01-17T05:40:18.039Z,0
2018-01-17T05:41:18.819Z,0
2018-01-17T05:42:18.567Z,0
2018-01-17T05:43:18.085Z,0
2018-01-17T05:44:18.849Z,0
2018-01-17T05:45:18.378Z,0
2018-01-17T05:46:18.889Z,0
2018-01-17T05:47:18.393Z,0
2018-01-17T05:48:18.400Z,0
2018-01-17T05:49:18.917Z,0
2018-01-17T05:50:18.675Z,0
2018-01-17T05:51:18.436Z,0
2018-01-17T05:52:18.205Z,0
2018-01-17T05:53:19.020Z,0
2018-01-17T05:54:18.752Z,0
2018-01-17T05:55:18.242Z,0
2018-01-17T05:56:18.757Z,0
2018-01-17T05:57:18.275Z,0
2018-01-17T05:58:18.531Z,0
2018-01-17T05:59:18.551Z,0
2018-01-17T06:00:18.310Z,0
2018-01-17T06:01:18.335Z,0
2018-01-17T06:02:18.845Z,0
2018-01-17T06:03:18.609Z,0
2018-01-17T06:04:18.617Z,0
2018-01-17T06:05:18.387Z,0
2018-01-17T06:06:19.168Z,0
2018-01-17T06:07:18.661Z,0
2018-01-17T06:08:18.470Z,0
2018-01-17T06:09:18.692Z,0
2018-01-17T06:10:18.701Z,0
2018-01-17T06:11:18.963Z,0
2018-01-17T06:12:18.979Z,0
2018-01-17T06:13:18.739Z,0
2018-01-17T06:14:18.496Z,0
2018-01-17T06:15:19.264Z,0
2018-01-17T06:16:18.779Z,0
2018-01-17T06:17:19.048Z,0
2018-01-17T06:18:19.055Z,0
2018-01-17T06:19:19.078Z,0
2018-01-17T06:20:19.096Z,0
2018-01-17T06:21:19.152Z,0
2018-01-17T06:22:18.864Z,0
2018-01-17T06:23:18.933Z,0
2018-01-17T06:24:18.640Z,0
2018-01-17T06:25:19.182Z,0
2018-01-17T06:26:18.923Z,0
2018-01-17T06:27:18.684Z,0
2018-01-17T06:28:18.953Z,0
2018-01-17T06:29:18.987Z,0
2018-01-17T06:30:19.236Z,0
2018-01-17T06:31:18.993Z,0
2018-01-17T06:32:19.269Z,0
2018-01-17T06:33:19.328Z,0
2018-01-17T06:34:19.287Z,0
2018-01-17T06:35:19.049Z,0
2018-01-17T06:36:19.320Z,0
2018-01-17T06:37:19.330Z,0
2018-01-17T06:38:19.392Z,0
2018-01-17T06:39:18.854Z,0
2018-01-17T06:40:19.116Z,0
2018-01-17T06:41:18.880Z,0
2018-01-17T06:42:18.889Z,0
2018-01-17T06:43:19.454Z,0
2018-01-17T06:44:19.441Z,0
2018-01-17T06:45:19.434Z,0
2018-01-17T06:46:19.473Z,0
2018-01-17T06:47:19.217Z,0
2018-01-17T06:48:19.732Z,0
2018-01-17T06:49:19.742Z,0
2018-01-17T06:50:19.257Z,0
2018-01-17T06:51:19.325Z,0
2018-01-17T06:52:19.532Z,0
2018-01-17T06:53:19.594Z,0
2018-01-17T06:54:19.307Z,0
2018-01-17T06:55:19.063Z,0
2018-01-17T06:56:19.831Z,0
2018-01-17T06:57:19.094Z,0
2018-01-17T06:58:19.619Z,0
2018-01-17T06:59:19.119Z,0
2018-01-17T07:00:19.385Z,0
2018-01-17T07:01:19.149Z,0
2018-01-17T07:02:19.421Z,0
2018-01-17T07:03:19.680Z,0
2018-01-17T07:04:19.187Z,0
2018-01-17T07:05:19.725Z,0
2018-01-17T07:06:19.216Z,0
2018-01-17T07:07:19.481Z,0
2018-01-17T07:08:19.794Z,0
2018-01-17T07:09:19.505Z,0
2018-01-17T07:10:20.072Z,0
2018-01-17T07:11:19.025Z,0
2018-01-17T07:12:19.803Z,0
2018-01-17T07:13:19.555Z,0
2018-01-17T07:14:20.140Z,0
2018-01-17T07:15:20.095Z,0
2018-01-17T07:16:19.601Z,0
2018-01-17T07:17:19.610Z,0
2018-01-17T07:18:19.618Z,0
2018-01-17T07:19:20.132Z,5
2018-01-17T07:20:19.652Z,5
2018-01-17T07:21:19.656Z,5
2018-01-17T07:22:19.915Z,10
2018-01-17T07:23:19.573Z,10
2018-01-17T07:24:19.686Z,10
2018-01-17T07:25:19.960Z,10
2018-01-17T07:26:19.966Z,10
2018-01-17T07:27:19.974Z,10
2018-01-17T07:28:19.987Z,10
2018-01-17T07:29:20.272Z,10
2018-01-17T07:30:20.269Z,10
2018-01-17T07:31:20.281Z,10
2018-01-17T07:32:19.532Z,10
2018-01-17T07:33:19.544Z,10
2018-01-17T07:34:20.310Z,10
2018-01-17T07:35:19.830Z,10
2018-01-17T07:36:20.108Z,10
2018-01-17T07:37:20.103Z,10
2018-01-17T07:38:19.660Z,10
2018-01-17T07:39:19.626Z,10
2018-01-17T07:40:19.635Z,10
2018-01-17T07:41:19.899Z,5
2018-01-17T07:42:19.661Z,5
2018-01-17T07:43:19.673Z,5
2018-01-17T07:44:20.201Z,5
2018-01-17T07:45:19.946Z,5
2018-01-17T07:46:19.956Z,10
2018-01-17T07:47:19.722Z,10
2018-01-17T07:48:20.088Z,10
2018-01-17T07:49:20.026Z,5
2018-01-17T07:50:20.007Z,5
2018-01-17T07:51:20.023Z,5
2018-01-17T07:52:20.338Z,5
2018-01-17T07:53:20.097Z,5
2018-01-17T07:54:20.565Z,5
2018-01-17T07:55:20.098Z,5
2018-01-17T07:56:20.181Z,5
2018-01-17T07:57:19.840Z,5
2018-01-17T07:58:20.614Z,5
2018-01-17T07:59:20.367Z,5
2018-01-17T08:00:19.877Z,5
2018-01-17T08:01:20.640Z,5
2018-01-17T08:02:20.155Z,5
2018-01-17T08:03:19.913Z,10
2018-01-17T08:04:20.432Z,10
2018-01-17T08:05:20.442Z,10
2018-01-17T08:06:19.954Z,10
2018-01-17T08:07:20.468Z,10
2018-01-17T08:08:20.023Z,10
2018-01-17T08:09:20.494Z,10
2018-01-17T08:10:20.276Z,15
2018-01-17T08:11:20.517Z,15
2018-01-17T08:12:20.775Z,15
2018-01-17T08:13:20.288Z,15
2018-01-17T08:14:20.802Z,15
2018-01-17T08:15:20.816Z,15
2018-01-17T08:16:20.068Z,20
2018-01-17T08:17:20.379Z,20
2018-01-17T08:18:20.596Z,20
2018-01-17T08:19:20.858Z,25
2018-01-17T08:20:20.365Z,25
2018-01-17T08:21:19.879Z,25
2018-01-17T08:22:20.403Z,20
2018-01-17T08:23:20.462Z,20
2018-01-17T08:24:20.416Z,20
2018-01-17T08:25:20.436Z,20
2018-01-17T08:26:20.962Z,20
2018-01-17T08:27:20.712Z,20
2018-01-17T08:28:20.467Z,25
2018-01-17T08:29:20.482Z,30
2018-01-17T08:30:20.752Z,30
2018-01-17T08:31:20.500Z,30
2018-01-17T08:32:20.763Z,25
2018-01-17T08:33:20.780Z,30
2018-01-17T08:34:20.282Z,30
2018-01-17T08:35:20.296Z,35
2018-01-17T08:36:20.566Z,40
2018-01-17T08:37:20.322Z,55
2018-01-17T08:38:20.634Z,65
2018-01-17T08:39:20.846Z,65
2018-01-17T08:40:21.109Z,65
2018-01-17T08:41:20.629Z,70
2018-01-17T08:42:20.887Z,70
2018-01-17T08:43:20.895Z,65
2018-01-17T08:44:20.908Z,60
2018-01-17T08:45:20.166Z,55
2018-01-17T08:46:20.683Z,55
2018-01-17T08:47:20.442Z,55
2018-01-17T08:48:21.056Z,60
2018-01-17T08:49:20.963Z,70
2018-01-17T08:50:20.764Z,70
2018-01-17T08:51:20.993Z,75
2018-01-17T08:52:20.520Z,75
2018-01-17T08:53:20.827Z,75
2018-01-17T08:54:21.027Z,75
2018-01-17T08:55:20.289Z,80
2018-01-17T08:56:20.551Z,85
2018-01-17T08:57:21.071Z,100
2018-01-17T08:58:20.824Z,100
2018-01-17T08:59:20.843Z,90
2018-01-17T09:00:21.107Z,90
2018-01-17T09:01:21.374Z,100
2018-01-17T09:02:20.877Z,100
2018-01-17T09:03:21.393Z,95
2018-01-17T09:04:21.199Z,95
2018-01-17T09:05:20.911Z,95
2018-01-17T09:06:20.928Z,95
2018-01-17T09:07:21.447Z,95
2018-01-17T09:08:20.994Z,90
2018-01-17T09:09:20.712Z,90
2018-01-17T09:10:20.726Z,80
2018-01-17T09:11:21.243Z,75
2018-01-17T09:12:21.512Z,80
2018-01-17T09:13:21.009Z,75
2018-01-17T09:14:21.286Z,90
2018-01-17T09:15:21.032Z,115
2018-01-17T09:16:21.546Z,130
2018-01-17T09:17:21.051Z,140
2018-01-17T09:18:21.316Z,145
2018-01-17T09:19:21.329Z,155
2018-01-17T09:20:21.347Z,160
2018-01-17T09:21:21.352Z,155
2018-01-17T09:22:21.362Z,175
2018-01-17T09:23:20.884Z,175
2018-01-17T09:24:21.390Z,165
2018-01-17T09:25:21.454Z,145
2018-01-17T09:26:21.672Z,120
2018-01-17T09:27:21.244Z,115
2018-01-17T09:28:21.186Z,110
2018-01-17T09:29:21.706Z,110
2018-01-17T09:30:21.468Z,130
2018-01-17T09:31:21.483Z,160
2018-01-17T09:32:21.591Z,180
2018-01-17T09:33:21.254Z,205
2018-01-17T09:34:21.522Z,240
2018-01-17T09:35:21.531Z,285
2018-01-17T09:36:21.544Z,310
2018-01-17T09:37:21.053Z,320
2018-01-17T09:38:21.822Z,320
2018-01-17T09:39:21.578Z,330
2018-01-17T09:40:21.348Z,320
2018-01-17T09:41:21.114Z,320
2018-01-17T09:42:21.920Z,310
2018-01-17T09:43:21.641Z,250
2018-01-17T09:44:21.643Z,230
2018-01-17T09:45:21.405Z,210
2018-01-17T09:46:21.167Z,175
2018-01-17T09:47:21.191Z,185
2018-01-17T09:48:21.701Z,185
2018-01-17T09:49:21.211Z,170
2018-01-17T09:50:21.220Z,185
2018-01-17T09:51:21.731Z,180
2018-01-17T09:52:21.496Z,195
2018-01-17T09:53:21.259Z,180
2018-01-17T09:54:21.801Z,145
2018-01-17T09:55:21.292Z,160
2018-01-17T09:56:21.547Z,155
2018-01-17T09:57:21.611Z,160
2018-01-17T09:58:21.574Z,160
2018-01-17T09:59:21.839Z,190
2018-01-17T10:00:22.097Z,180
2018-01-17T10:01:21.862Z,190
2018-01-17T10:02:21.628Z,200
2018-01-17T10:03:21.892Z,200
2018-01-17T10:04:21.900Z,190
2018-01-17T10:05:22.160Z,190
2018-01-17T10:06:21.418Z,195
2018-01-17T10:07:22.191Z,230
2018-01-17T10:08:21.699Z,225
2018-01-17T10:09:22.215Z,340
2018-01-17T10:10:21.729Z,380
2018-01-17T10:11:21.740Z,320
2018-01-17T10:12:21.801Z,195
2018-01-17T10:13:22.270Z,530
2018-01-17T10:14:22.026Z,655
2018-01-17T10:15:21.794Z,870
2018-01-17T10:16:22.054Z,740
2018-01-17T10:17:21.574Z,975
2018-01-17T10:18:21.832Z,1215
2018-01-17T10:19:21.343Z,1370
2018-01-17T10:20:21.653Z,1330
2018-01-17T10:21:21.877Z,1340
2018-01-17T10:22:22.144Z,1345
2018-01-17T10:23:22.167Z,1275
2018-01-17T10:24:22.166Z,1350
2018-01-17T10:25:22.193Z,1295
2018-01-17T10:26:22.208Z,1340
2018-01-17T10:27:22.009Z,1375
2018-01-17T10:28:21.984Z,1280
2018-01-17T10:29:22.004Z,1385
2018-01-17T10:30:21.764Z,1470
2018-01-17T10:31:22.303Z,1325
2018-01-17T10:32:22.392Z,1525
2018-01-17T10:33:22.310Z,1605
2018-01-17T10:34:22.334Z,1550
2018-01-17T10:35:22.610Z,1585
2018-01-17T10:36:21.863Z,1585
2018-01-17T10:37:22.393Z,1660
2018-01-17T10:38:21.906Z,1640
2018-01-17T10:39:21.919Z,1575
2018-01-17T10:40:22.440Z,615
2018-01-17T10:41:21.953Z,1540
2018-01-17T10:42:22.279Z,350
2018-01-17T10:43:22.498Z,1560
2018-01-17T10:44:22.032Z,1495
2018-01-17T10:45:22.791Z,1625
2018-01-17T10:46:22.304Z,1750
2018-01-17T10:47:22.575Z,1870
2018-01-17T10:48:22.596Z,365
2018-01-17T10:49:22.357Z,655
2018-01-17T10:50:22.648Z,410
2018-01-17T10:51:22.662Z,815
2018-01-17T10:52:22.723Z,405
2018-01-17T10:53:22.441Z,295
2018-01-17T10:54:22.207Z,1365
2018-01-17T10:55:22.228Z,390
2018-01-17T10:56:22.763Z,420
2018-01-17T10:57:22.564Z,315
2018-01-17T10:58:22.284Z,265
2018-01-17T10:59:22.049Z,280
2018-01-17T11:00:22.826Z,215
2018-01-17T11:01:22.345Z,225
2018-01-17T11:02:23.115Z,660
2018-01-17T11:03:23.126Z,240
2018-01-17T11:04:22.900Z,265
2018-01-17T11:05:22.929Z,255
2018-01-17T11:06:23.194Z,215
2018-01-17T11:07:22.685Z,190
2018-01-17T11:08:22.961Z,155
2018-01-17T11:09:23.018Z,165
2018-01-17T11:10:22.746Z,180
2018-01-17T11:11:23.011Z,155
2018-01-17T11:12:23.079Z,175
2018-01-17T11:13:23.043Z,190
2018-01-17T11:14:22.806Z,220
2018-01-17T11:15:22.823Z,290
2018-01-17T11:16:22.838Z,470
2018-01-17T11:17:23.381Z,335
2018-01-17T11:18:23.119Z,420
2018-01-17T11:19:22.929Z,660
2018-01-17T11:20:22.899Z,495
2018-01-17T11:21:22.671Z,375
2018-01-17T11:22:23.177Z,290
2018-01-17T11:23:22.939Z,210
2018-01-17T11:24:22.957Z,205
2018-01-17T11:25:22.982Z,225
2018-01-17T11:26:22.994Z,275
2018-01-17T11:27:22.999Z,185
2018-01-17T11:28:23.509Z,145
2018-01-17T11:29:23.079Z,140
2018-01-17T11:30:23.594Z,145
2018-01-17T11:31:22.806Z,150
2018-01-17T11:32:23.328Z,200
2018-01-17T11:33:22.833Z,195
2018-01-17T11:34:23.406Z,180
2018-01-17T11:35:22.620Z,180
2018-01-17T11:36:23.393Z,170
2018-01-17T11:37:23.412Z,125
2018-01-17T11:38:23.167Z,105
2018-01-17T11:39:23.530Z,100
2018-01-17T11:40:23.467Z,95
2018-01-17T11:41:23.207Z,85
2018-01-17T11:42:23.486Z,80
2018-01-17T11:43:23.744Z,65
2018-01-17T11:44:23.305Z,55
2018-01-17T11:45:23.324Z,50
2018-01-17T11:46:23.535Z,45
2018-01-17T11:47:23.551Z,45
2018-01-17T11:48:23.313Z,40
2018-01-17T11:49:23.332Z,30
2018-01-17T11:50:23.592Z,25
2018-01-17T11:51:23.357Z,20
2018-01-17T11:52:23.420Z,20
2018-01-17T11:53:23.638Z,15
2018-01-17T11:54:23.144Z,10
2018-01-17T11:55:23.159Z,15
2018-01-17T11:56:23.677Z,15
2018-01-17T11:57:23.688Z,20
2018-01-17T11:58:23.702Z,20
2018-01-17T11:59:23.517Z,20
2018-01-17T12:00:23.987Z,20
2018-01-17T12:01:23.776Z,20
2018-01-17T12:02:23.252Z,20
2018-01-17T12:03:23.765Z,20
2018-01-17T12:04:23.788Z,20
2018-01-17T12:05:23.317Z,25
2018-01-17T12:06:23.825Z,30
2018-01-17T12:07:24.071Z,30
2018-01-17T12:08:23.601Z,30
2018-01-17T12:09:23.593Z,35
2018-01-17T12:10:24.109Z,40
2018-01-17T12:11:23.864Z,45
2018-01-17T12:12:23.900Z,50
2018-01-17T12:13:23.889Z,55
2018-01-17T12:14:23.484Z,65
2018-01-17T12:15:23.923Z,65
2018-01-17T12:16:23.950Z,75
2018-01-17T12:17:23.939Z,80
2018-01-17T12:18:23.714Z,85
2018-01-17T12:19:23.977Z,95
2018-01-17T12:20:24.004Z,105
2018-01-17T12:21:24.255Z,125
2018-01-17T12:22:23.820Z,145
2018-01-17T12:23:23.763Z,160
2018-01-17T12:24:24.063Z,180
2018-01-17T12:25:24.034Z,110
2018-01-17T12:26:24.053Z,210
2018-01-17T12:27:24.322Z,225
2018-01-17T12:28:23.571Z,240
2018-01-17T12:29:24.409Z,285
2018-01-17T12:30:24.357Z,405
2018-01-17T12:31:23.857Z,885
2018-01-17T12:32:23.869Z,660
2018-01-17T12:33:24.130Z,1320
2018-01-17T12:34:24.146Z,2270
2018-01-17T12:35:23.652Z,2200
2018-01-17T12:36:23.930Z,2205
2018-01-17T12:37:24.443Z,2040
2018-01-17T12:38:23.953Z,1385
2018-01-17T12:39:24.223Z,1105
2018-01-17T12:40:24.235Z,850
2018-01-17T12:41:23.999Z,810
2018-01-17T12:42:24.519Z,820
2018-01-17T12:43:24.033Z,785
2018-01-17T12:44:24.357Z,870
2018-01-17T12:45:24.062Z,1030
2018-01-17T12:46:24.592Z,840
2018-01-17T12:47:24.091Z,920
2018-01-17T12:48:24.127Z,625
2018-01-17T12:49:24.376Z,1005
2018-01-17T12:50:24.651Z,990
2018-01-17T12:51:24.653Z,580
2018-01-17T12:52:24.169Z,545
2018-01-17T12:53:24.182Z,550
2018-01-17T12:54:23.952Z,910
2018-01-17T12:55:24.469Z,1015
2018-01-17T12:56:24.231Z,1140
2018-01-17T12:57:24.496Z,1290
2018-01-17T12:58:24.266Z,1905
2018-01-17T12:59:24.084Z,2150
2018-01-17T13:00:24.600Z,2280
2018-01-17T13:01:24.316Z,2495
2018-01-17T13:02:24.328Z,2585
2018-01-17T13:03:24.594Z,2525
2018-01-17T13:04:24.364Z,2100
2018-01-17T13:05:24.894Z,1905
2018-01-17T13:06:24.668Z,2295
2018-01-17T13:07:24.683Z,1830
2018-01-17T13:08:24.700Z,2355
2018-01-17T13:09:24.720Z,510
2018-01-17T13:10:24.746Z,420
2018-01-17T13:11:24.257Z,480
2018-01-17T13:12:24.777Z,910
2018-01-17T13:13:24.807Z,450
2018-01-17T13:14:25.029Z,1065
2018-01-17T13:15:24.845Z,430
2018-01-17T13:16:24.602Z,1950
2018-01-17T13:17:24.624Z,235
2018-01-17T13:18:24.396Z,160
2018-01-17T13:19:24.939Z,240
2018-01-17T13:20:24.426Z,270
2018-01-17T13:21:24.445Z,305
2018-01-17T13:22:24.972Z,255
2018-01-17T13:23:24.995Z,365
2018-01-17T13:24:25.006Z,560
2018-01-17T13:25:25.025Z,435
2018-01-17T13:26:25.033Z,265
2018-01-17T13:27:24.801Z,385
2018-01-17T13:28:24.825Z,355
2018-01-17T13:29:25.500Z,180
2018-01-17T13:30:25.365Z,190
2018-01-17T13:31:25.378Z,530
2018-01-17T13:32:25.137Z,235
2018-01-17T13:33:25.405Z,185
2018-01-17T13:34:24.665Z,230
2018-01-17T13:35:24.929Z,240
2018-01-17T13:36:25.199Z,230
2018-01-17T13:37:25.220Z,165
2018-01-17T13:38:24.723Z,175
2018-01-17T13:39:25.240Z,165
2018-01-17T13:40:25.068Z,115
2018-01-17T13:41:25.274Z,95
2018-01-17T13:42:25.053Z,95
2018-01-17T13:43:25.326Z,80
2018-01-17T13:44:25.371Z,70
2018-01-17T13:45:24.826Z,70
2018-01-17T13:46:25.108Z,95
2018-01-17T13:47:25.620Z,290
2018-01-17T13:48:25.624Z,410
2018-01-17T13:49:25.754Z,480
2018-01-17T13:50:25.651Z,460
2018-01-17T13:51:24.660Z,450
2018-01-17T13:52:25.441Z,435
2018-01-17T13:53:25.197Z,300
2018-01-17T13:54:24.960Z,370
2018-01-17T13:55:25.215Z,260
2018-01-17T13:56:24.975Z,280
2018-01-17T13:57:25.507Z,340
2018-01-17T13:58:25.258Z,270
2018-01-17T13:59:25.574Z,255
2018-01-17T14:00:25.037Z,205
2018-01-17T14:01:25.114Z,165
2018-01-17T14:02:25.568Z,165
2018-01-17T14:03:25.335Z,140
2018-01-17T14:04:25.590Z,140
2018-01-17T14:05:25.859Z,120
2018-01-17T14:06:25.625Z,125
2018-01-17T14:07:25.883Z,105
2018-01-17T14:08:25.653Z,90
2018-01-17T14:09:25.413Z,110
2018-01-17T14:10:25.165Z,120
2018-01-17T14:11:25.695Z,100
2018-01-17T14:12:25.449Z,65
2018-01-17T14:13:25.716Z,55
2018-01-17T14:14:25.024Z,60
2018-01-17T14:15:25.742Z,60
2018-01-17T14:16:25.750Z,60
2018-01-17T14:17:25.764Z,60
2018-01-17T14:18:26.026Z,50
2018-01-17T14:19:27.000Z,60
2018-01-17T14:20:25.547Z,50
2018-01-17T14:21:25.308Z,50